<?xml version="1.0" encoding="UTF-8" standalone="no" ?>
<gpx xmlns="http://www.topografix.com/GPX/1/1" xmlns:xsi="http://www.w3.org/2001/XMLSchema-instance" xsi:schemaLocation="http://www.topografix.com/GPX/1/1 http://www.topografix.com/GPX/1/1/gpx.xsd" version="1.1" creator="VisuGPX - https://www.visugpx.com">
  <metadata>
    <name>Activité Randonnée TwoNav</name>
    <desc><![CDATA[2023-01-22_161051.trk]]></desc>
  </metadata>
  <trk>
    <name><![CDATA[Activité Randonnée TwoNav_1]]></name>
    <trkseg>
      <trkpt lat="48.56273" lon="6.33014">
        <ele>246.6</ele>
        <time>2023-01-22T15:10:51Z</time>
      </trkpt>
      <trkpt lat="48.56273" lon="6.33014">
        <ele>246.6</ele>
        <time>2023-01-22T15:10:52Z</time>
      </trkpt>
      <trkpt lat="48.56273" lon="6.33013">
        <ele>246.6</ele>
        <time>2023-01-22T15:10:54Z</time>
      </trkpt>
      <trkpt lat="48.56281" lon="6.33006">
        <ele>247.6</ele>
        <time>2023-01-22T15:11:03Z</time>
      </trkpt>
      <trkpt lat="48.5629" lon="6.33">
        <ele>248.7</ele>
        <time>2023-01-22T15:11:12Z</time>
      </trkpt>
      <trkpt lat="48.56299" lon="6.32995">
        <ele>249.4</ele>
        <time>2023-01-22T15:11:20Z</time>
      </trkpt>
      <trkpt lat="48.56308" lon="6.3299">
        <ele>250</ele>
        <time>2023-01-22T15:11:28Z</time>
      </trkpt>
      <trkpt lat="48.56317" lon="6.32983">
        <ele>250.8</ele>
        <time>2023-01-22T15:11:37Z</time>
      </trkpt>
      <trkpt lat="48.56326" lon="6.32979">
        <ele>251.6</ele>
        <time>2023-01-22T15:11:46Z</time>
      </trkpt>
      <trkpt lat="48.56335" lon="6.32975">
        <ele>252.6</ele>
        <time>2023-01-22T15:11:54Z</time>
      </trkpt>
      <trkpt lat="48.56343" lon="6.32967">
        <ele>253.5</ele>
        <time>2023-01-22T15:12:03Z</time>
      </trkpt>
      <trkpt lat="48.56351" lon="6.32961">
        <ele>254.4</ele>
        <time>2023-01-22T15:12:11Z</time>
      </trkpt>
      <trkpt lat="48.56358" lon="6.32952">
        <ele>255.3</ele>
        <time>2023-01-22T15:12:21Z</time>
      </trkpt>
      <trkpt lat="48.56363" lon="6.32939">
        <ele>256.4</ele>
        <time>2023-01-22T15:12:32Z</time>
      </trkpt>
      <trkpt lat="48.56364" lon="6.32926">
        <ele>257.7</ele>
        <time>2023-01-22T15:12:42Z</time>
      </trkpt>
      <trkpt lat="48.56372" lon="6.32918">
        <ele>259</ele>
        <time>2023-01-22T15:12:53Z</time>
      </trkpt>
      <trkpt lat="48.5638" lon="6.32911">
        <ele>260.3</ele>
        <time>2023-01-22T15:13:03Z</time>
      </trkpt>
      <trkpt lat="48.56389" lon="6.32906">
        <ele>261.5</ele>
        <time>2023-01-22T15:13:09Z</time>
      </trkpt>
      <trkpt lat="48.56398" lon="6.32901">
        <ele>262.6</ele>
        <time>2023-01-22T15:13:16Z</time>
      </trkpt>
      <trkpt lat="48.56406" lon="6.32894">
        <ele>263.6</ele>
        <time>2023-01-22T15:13:23Z</time>
      </trkpt>
      <trkpt lat="48.56412" lon="6.32884">
        <ele>264.4</ele>
        <time>2023-01-22T15:13:30Z</time>
      </trkpt>
      <trkpt lat="48.56422" lon="6.32877">
        <ele>264.5</ele>
        <time>2023-01-22T15:13:38Z</time>
      </trkpt>
      <trkpt lat="48.56429" lon="6.32868">
        <ele>263.8</ele>
        <time>2023-01-22T15:13:45Z</time>
      </trkpt>
      <trkpt lat="48.56437" lon="6.3286">
        <ele>263</ele>
        <time>2023-01-22T15:13:53Z</time>
      </trkpt>
      <trkpt lat="48.56446" lon="6.32853">
        <ele>262.3</ele>
        <time>2023-01-22T15:14:01Z</time>
      </trkpt>
      <trkpt lat="48.56452" lon="6.32841">
        <ele>262.4</ele>
        <time>2023-01-22T15:14:09Z</time>
      </trkpt>
      <trkpt lat="48.56455" lon="6.32827">
        <ele>263</ele>
        <time>2023-01-22T15:14:17Z</time>
      </trkpt>
      <trkpt lat="48.56458" lon="6.32814">
        <ele>263.5</ele>
        <time>2023-01-22T15:14:24Z</time>
      </trkpt>
      <trkpt lat="48.56462" lon="6.32801">
        <ele>264.1</ele>
        <time>2023-01-22T15:14:32Z</time>
      </trkpt>
      <trkpt lat="48.56467" lon="6.32788">
        <ele>264.7</ele>
        <time>2023-01-22T15:14:40Z</time>
      </trkpt>
      <trkpt lat="48.56472" lon="6.32776">
        <ele>265.2</ele>
        <time>2023-01-22T15:14:48Z</time>
      </trkpt>
      <trkpt lat="48.5648" lon="6.3277">
        <ele>264.9</ele>
        <time>2023-01-22T15:15:01Z</time>
      </trkpt>
      <trkpt lat="48.56489" lon="6.32764">
        <ele>264.6</ele>
        <time>2023-01-22T15:15:10Z</time>
      </trkpt>
      <trkpt lat="48.56497" lon="6.32757">
        <ele>264.4</ele>
        <time>2023-01-22T15:15:17Z</time>
      </trkpt>
      <trkpt lat="48.56506" lon="6.32751">
        <ele>264.3</ele>
        <time>2023-01-22T15:15:25Z</time>
      </trkpt>
      <trkpt lat="48.56515" lon="6.32744">
        <ele>264.5</ele>
        <time>2023-01-22T15:15:33Z</time>
      </trkpt>
      <trkpt lat="48.56524" lon="6.32737">
        <ele>264.7</ele>
        <time>2023-01-22T15:15:41Z</time>
      </trkpt>
      <trkpt lat="48.56533" lon="6.32729">
        <ele>265.1</ele>
        <time>2023-01-22T15:15:49Z</time>
      </trkpt>
      <trkpt lat="48.56542" lon="6.32722">
        <ele>265.8</ele>
        <time>2023-01-22T15:15:58Z</time>
      </trkpt>
      <trkpt lat="48.56551" lon="6.32715">
        <ele>266.8</ele>
        <time>2023-01-22T15:16:06Z</time>
      </trkpt>
      <trkpt lat="48.5656" lon="6.32709">
        <ele>268.1</ele>
        <time>2023-01-22T15:16:14Z</time>
      </trkpt>
      <trkpt lat="48.56568" lon="6.32704">
        <ele>269.8</ele>
        <time>2023-01-22T15:16:22Z</time>
      </trkpt>
      <trkpt lat="48.56577" lon="6.32698">
        <ele>271.4</ele>
        <time>2023-01-22T15:16:32Z</time>
      </trkpt>
      <trkpt lat="48.56586" lon="6.32693">
        <ele>272.8</ele>
        <time>2023-01-22T15:16:40Z</time>
      </trkpt>
      <trkpt lat="48.56595" lon="6.32697">
        <ele>272.5</ele>
        <time>2023-01-22T15:16:51Z</time>
      </trkpt>
      <trkpt lat="48.56599" lon="6.3271">
        <ele>271.8</ele>
        <time>2023-01-22T15:16:59Z</time>
      </trkpt>
      <trkpt lat="48.56602" lon="6.32724">
        <ele>271.1</ele>
        <time>2023-01-22T15:17:07Z</time>
      </trkpt>
      <trkpt lat="48.56605" lon="6.3274">
        <ele>270.4</ele>
        <time>2023-01-22T15:17:15Z</time>
      </trkpt>
      <trkpt lat="48.56606" lon="6.32755">
        <ele>269.6</ele>
        <time>2023-01-22T15:17:22Z</time>
      </trkpt>
      <trkpt lat="48.56608" lon="6.3277">
        <ele>268.9</ele>
        <time>2023-01-22T15:17:30Z</time>
      </trkpt>
      <trkpt lat="48.56612" lon="6.32782">
        <ele>268.3</ele>
        <time>2023-01-22T15:17:41Z</time>
      </trkpt>
      <trkpt lat="48.56612" lon="6.32793">
        <ele>267.8</ele>
        <time>2023-01-22T15:17:51Z</time>
      </trkpt>
      <trkpt lat="48.56612" lon="6.32792">
        <ele>267.8</ele>
        <time>2023-01-22T15:17:54Z</time>
      </trkpt>
      <trkpt lat="48.5661" lon="6.32778">
        <ele>268.6</ele>
        <time>2023-01-22T15:18:03Z</time>
      </trkpt>
      <trkpt lat="48.56606" lon="6.32764">
        <ele>269.3</ele>
        <time>2023-01-22T15:18:08Z</time>
      </trkpt>
      <trkpt lat="48.56603" lon="6.32749">
        <ele>270.1</ele>
        <time>2023-01-22T15:18:17Z</time>
      </trkpt>
      <trkpt lat="48.56599" lon="6.32737">
        <ele>270.8</ele>
        <time>2023-01-22T15:18:24Z</time>
      </trkpt>
      <trkpt lat="48.56598" lon="6.32721">
        <ele>271.6</ele>
        <time>2023-01-22T15:18:32Z</time>
      </trkpt>
      <trkpt lat="48.56595" lon="6.32707">
        <ele>272.3</ele>
        <time>2023-01-22T15:18:40Z</time>
      </trkpt>
      <trkpt lat="48.56591" lon="6.32695">
        <ele>273</ele>
        <time>2023-01-22T15:18:51Z</time>
      </trkpt>
      <trkpt lat="48.56581" lon="6.32697">
        <ele>272.1</ele>
        <time>2023-01-22T15:18:57Z</time>
      </trkpt>
      <trkpt lat="48.56572" lon="6.32701">
        <ele>270.6</ele>
        <time>2023-01-22T15:19:04Z</time>
      </trkpt>
      <trkpt lat="48.56563" lon="6.32706">
        <ele>268.8</ele>
        <time>2023-01-22T15:19:12Z</time>
      </trkpt>
      <trkpt lat="48.56554" lon="6.32712">
        <ele>267.2</ele>
        <time>2023-01-22T15:19:20Z</time>
      </trkpt>
      <trkpt lat="48.56545" lon="6.32717">
        <ele>266.2</ele>
        <time>2023-01-22T15:19:28Z</time>
      </trkpt>
      <trkpt lat="48.56537" lon="6.32722">
        <ele>265.4</ele>
        <time>2023-01-22T15:19:35Z</time>
      </trkpt>
      <trkpt lat="48.56529" lon="6.3273">
        <ele>265</ele>
        <time>2023-01-22T15:19:42Z</time>
      </trkpt>
      <trkpt lat="48.56521" lon="6.32737">
        <ele>264.7</ele>
        <time>2023-01-22T15:19:49Z</time>
      </trkpt>
      <trkpt lat="48.56513" lon="6.32745">
        <ele>264.4</ele>
        <time>2023-01-22T15:19:56Z</time>
      </trkpt>
      <trkpt lat="48.56504" lon="6.32751">
        <ele>264.3</ele>
        <time>2023-01-22T15:20:04Z</time>
      </trkpt>
      <trkpt lat="48.56495" lon="6.32759">
        <ele>264.4</ele>
        <time>2023-01-22T15:20:12Z</time>
      </trkpt>
      <trkpt lat="48.56486" lon="6.32767">
        <ele>264.7</ele>
        <time>2023-01-22T15:20:20Z</time>
      </trkpt>
      <trkpt lat="48.56477" lon="6.32773">
        <ele>265.5</ele>
        <time>2023-01-22T15:20:28Z</time>
      </trkpt>
      <trkpt lat="48.56479" lon="6.32758">
        <ele>266.1</ele>
        <time>2023-01-22T15:20:37Z</time>
      </trkpt>
      <trkpt lat="48.56483" lon="6.32745">
        <ele>266.6</ele>
        <time>2023-01-22T15:20:44Z</time>
      </trkpt>
      <trkpt lat="48.56488" lon="6.32732">
        <ele>267.2</ele>
        <time>2023-01-22T15:20:52Z</time>
      </trkpt>
      <trkpt lat="48.56493" lon="6.32719">
        <ele>267.7</ele>
        <time>2023-01-22T15:21:00Z</time>
      </trkpt>
      <trkpt lat="48.56498" lon="6.32705">
        <ele>268.3</ele>
        <time>2023-01-22T15:21:08Z</time>
      </trkpt>
      <trkpt lat="48.56502" lon="6.32692">
        <ele>268.8</ele>
        <time>2023-01-22T15:21:16Z</time>
      </trkpt>
      <trkpt lat="48.56506" lon="6.32679">
        <ele>269.3</ele>
        <time>2023-01-22T15:21:24Z</time>
      </trkpt>
      <trkpt lat="48.5651" lon="6.32666">
        <ele>269.9</ele>
        <time>2023-01-22T15:21:32Z</time>
      </trkpt>
      <trkpt lat="48.56514" lon="6.32652">
        <ele>270.5</ele>
        <time>2023-01-22T15:21:39Z</time>
      </trkpt>
      <trkpt lat="48.56517" lon="6.32638">
        <ele>271.2</ele>
        <time>2023-01-22T15:21:46Z</time>
      </trkpt>
      <trkpt lat="48.5652" lon="6.32625">
        <ele>271.8</ele>
        <time>2023-01-22T15:21:53Z</time>
      </trkpt>
      <trkpt lat="48.56525" lon="6.32612">
        <ele>272.4</ele>
        <time>2023-01-22T15:22:00Z</time>
      </trkpt>
      <trkpt lat="48.56528" lon="6.32598">
        <ele>273.1</ele>
        <time>2023-01-22T15:22:08Z</time>
      </trkpt>
      <trkpt lat="48.56532" lon="6.32586">
        <ele>273.8</ele>
        <time>2023-01-22T15:22:17Z</time>
      </trkpt>
      <trkpt lat="48.56539" lon="6.32576">
        <ele>274.4</ele>
        <time>2023-01-22T15:22:26Z</time>
      </trkpt>
      <trkpt lat="48.56548" lon="6.3257">
        <ele>275.1</ele>
        <time>2023-01-22T15:22:35Z</time>
      </trkpt>
      <trkpt lat="48.56556" lon="6.32565">
        <ele>275.8</ele>
        <time>2023-01-22T15:22:43Z</time>
      </trkpt>
      <trkpt lat="48.56562" lon="6.32553">
        <ele>278.2</ele>
        <time>2023-01-22T15:22:54Z</time>
      </trkpt>
      <trkpt lat="48.56571" lon="6.32546">
        <ele>280.1</ele>
        <time>2023-01-22T15:23:04Z</time>
      </trkpt>
      <trkpt lat="48.56579" lon="6.32539">
        <ele>281.8</ele>
        <time>2023-01-22T15:23:12Z</time>
      </trkpt>
      <trkpt lat="48.56586" lon="6.32529">
        <ele>283.7</ele>
        <time>2023-01-22T15:23:24Z</time>
      </trkpt>
      <trkpt lat="48.56588" lon="6.32525">
        <ele>285.4</ele>
        <time>2023-01-22T15:23:32Z</time>
      </trkpt>
      <trkpt lat="48.56588" lon="6.32525">
        <ele>287.2</ele>
        <time>2023-01-22T15:23:33Z</time>
      </trkpt>
      <trkpt lat="48.56593" lon="6.32513">
        <ele>289</ele>
        <time>2023-01-22T15:23:42Z</time>
      </trkpt>
      <trkpt lat="48.56591" lon="6.32499">
        <ele>289.6</ele>
        <time>2023-01-22T15:23:58Z</time>
      </trkpt>
      <trkpt lat="48.56584" lon="6.3249">
        <ele>290.6</ele>
        <time>2023-01-22T15:24:06Z</time>
      </trkpt>
      <trkpt lat="48.56575" lon="6.32485">
        <ele>291.7</ele>
        <time>2023-01-22T15:24:14Z</time>
      </trkpt>
      <trkpt lat="48.56566" lon="6.32481">
        <ele>292.7</ele>
        <time>2023-01-22T15:24:23Z</time>
      </trkpt>
      <trkpt lat="48.56557" lon="6.32477">
        <ele>293.6</ele>
        <time>2023-01-22T15:24:31Z</time>
      </trkpt>
      <trkpt lat="48.56548" lon="6.32469">
        <ele>294.8</ele>
        <time>2023-01-22T15:24:40Z</time>
      </trkpt>
      <trkpt lat="48.56541" lon="6.32461">
        <ele>295.8</ele>
        <time>2023-01-22T15:24:48Z</time>
      </trkpt>
      <trkpt lat="48.56533" lon="6.32453">
        <ele>297.1</ele>
        <time>2023-01-22T15:24:58Z</time>
      </trkpt>
      <trkpt lat="48.56525" lon="6.32446">
        <ele>298.4</ele>
        <time>2023-01-22T15:25:04Z</time>
      </trkpt>
      <trkpt lat="48.56518" lon="6.32437">
        <ele>299.8</ele>
        <time>2023-01-22T15:25:12Z</time>
      </trkpt>
      <trkpt lat="48.56511" lon="6.32429">
        <ele>301.1</ele>
        <time>2023-01-22T15:25:21Z</time>
      </trkpt>
      <trkpt lat="48.56502" lon="6.3242">
        <ele>302.7</ele>
        <time>2023-01-22T15:25:29Z</time>
      </trkpt>
      <trkpt lat="48.56494" lon="6.32412">
        <ele>304.5</ele>
        <time>2023-01-22T15:25:37Z</time>
      </trkpt>
      <trkpt lat="48.56485" lon="6.32405">
        <ele>306.3</ele>
        <time>2023-01-22T15:25:46Z</time>
      </trkpt>
      <trkpt lat="48.56477" lon="6.32398">
        <ele>307.9</ele>
        <time>2023-01-22T15:25:56Z</time>
      </trkpt>
      <trkpt lat="48.56468" lon="6.32393">
        <ele>309.2</ele>
        <time>2023-01-22T15:26:05Z</time>
      </trkpt>
      <trkpt lat="48.56462" lon="6.32395">
        <ele>310.1</ele>
        <time>2023-01-22T15:26:19Z</time>
      </trkpt>
      <trkpt lat="48.56462" lon="6.32395">
        <ele>310.2</ele>
        <time>2023-01-22T15:26:22Z</time>
      </trkpt>
      <trkpt lat="48.56461" lon="6.32393">
        <ele>310.4</ele>
        <time>2023-01-22T15:26:26Z</time>
      </trkpt>
      <trkpt lat="48.56461" lon="6.32394">
        <ele>310.5</ele>
        <time>2023-01-22T15:26:27Z</time>
      </trkpt>
      <trkpt lat="48.5646" lon="6.32394">
        <ele>310.7</ele>
        <time>2023-01-22T15:26:30Z</time>
      </trkpt>
      <trkpt lat="48.5646" lon="6.32394">
        <ele>310.7</ele>
        <time>2023-01-22T15:26:32Z</time>
      </trkpt>
      <trkpt lat="48.56453" lon="6.32384">
        <ele>312.3</ele>
        <time>2023-01-22T15:26:43Z</time>
      </trkpt>
      <trkpt lat="48.56444" lon="6.32377">
        <ele>314.1</ele>
        <time>2023-01-22T15:26:51Z</time>
      </trkpt>
      <trkpt lat="48.56435" lon="6.32374">
        <ele>315.9</ele>
        <time>2023-01-22T15:26:59Z</time>
      </trkpt>
      <trkpt lat="48.56425" lon="6.32373">
        <ele>317.7</ele>
        <time>2023-01-22T15:27:07Z</time>
      </trkpt>
      <trkpt lat="48.56415" lon="6.32373">
        <ele>319.3</ele>
        <time>2023-01-22T15:27:18Z</time>
      </trkpt>
      <trkpt lat="48.56406" lon="6.32373">
        <ele>320.7</ele>
        <time>2023-01-22T15:27:27Z</time>
      </trkpt>
      <trkpt lat="48.56396" lon="6.32373">
        <ele>321.9</ele>
        <time>2023-01-22T15:27:36Z</time>
      </trkpt>
      <trkpt lat="48.56387" lon="6.32377">
        <ele>322.7</ele>
        <time>2023-01-22T15:27:46Z</time>
      </trkpt>
      <trkpt lat="48.56379" lon="6.3238">
        <ele>323.3</ele>
        <time>2023-01-22T15:27:56Z</time>
      </trkpt>
      <trkpt lat="48.56369" lon="6.32379">
        <ele>323.8</ele>
        <time>2023-01-22T15:28:06Z</time>
      </trkpt>
      <trkpt lat="48.56359" lon="6.32375">
        <ele>324.1</ele>
        <time>2023-01-22T15:28:15Z</time>
      </trkpt>
      <trkpt lat="48.56351" lon="6.32369">
        <ele>324.4</ele>
        <time>2023-01-22T15:28:23Z</time>
      </trkpt>
      <trkpt lat="48.56343" lon="6.3236">
        <ele>324.6</ele>
        <time>2023-01-22T15:28:31Z</time>
      </trkpt>
      <trkpt lat="48.56335" lon="6.3235">
        <ele>324.9</ele>
        <time>2023-01-22T15:28:39Z</time>
      </trkpt>
      <trkpt lat="48.56327" lon="6.3234">
        <ele>325.2</ele>
        <time>2023-01-22T15:28:47Z</time>
      </trkpt>
      <trkpt lat="48.56321" lon="6.32329">
        <ele>325.4</ele>
        <time>2023-01-22T15:28:55Z</time>
      </trkpt>
      <trkpt lat="48.56315" lon="6.32318">
        <ele>325.6</ele>
        <time>2023-01-22T15:29:02Z</time>
      </trkpt>
      <trkpt lat="48.56309" lon="6.32308">
        <ele>325.8</ele>
        <time>2023-01-22T15:29:09Z</time>
      </trkpt>
      <trkpt lat="48.56302" lon="6.32299">
        <ele>326</ele>
        <time>2023-01-22T15:29:16Z</time>
      </trkpt>
      <trkpt lat="48.56295" lon="6.32288">
        <ele>326.2</ele>
        <time>2023-01-22T15:29:24Z</time>
      </trkpt>
      <trkpt lat="48.56288" lon="6.32278">
        <ele>326.5</ele>
        <time>2023-01-22T15:29:32Z</time>
      </trkpt>
      <trkpt lat="48.56281" lon="6.32267">
        <ele>326.7</ele>
        <time>2023-01-22T15:29:40Z</time>
      </trkpt>
      <trkpt lat="48.56272" lon="6.32259">
        <ele>327</ele>
        <time>2023-01-22T15:29:48Z</time>
      </trkpt>
      <trkpt lat="48.56265" lon="6.3225">
        <ele>327.2</ele>
        <time>2023-01-22T15:29:55Z</time>
      </trkpt>
      <trkpt lat="48.56258" lon="6.32241">
        <ele>327.4</ele>
        <time>2023-01-22T15:30:02Z</time>
      </trkpt>
      <trkpt lat="48.56251" lon="6.32237">
        <ele>327.3</ele>
        <time>2023-01-22T15:30:13Z</time>
      </trkpt>
      <trkpt lat="48.56252" lon="6.32237">
        <ele>327.3</ele>
        <time>2023-01-22T15:30:15Z</time>
      </trkpt>
      <trkpt lat="48.56253" lon="6.32238">
        <ele>327.3</ele>
        <time>2023-01-22T15:30:22Z</time>
      </trkpt>
      <trkpt lat="48.56253" lon="6.32237">
        <ele>327.3</ele>
        <time>2023-01-22T15:30:24Z</time>
      </trkpt>
      <trkpt lat="48.56244" lon="6.32228">
        <ele>327.3</ele>
        <time>2023-01-22T15:30:31Z</time>
      </trkpt>
      <trkpt lat="48.56236" lon="6.32221">
        <ele>327.4</ele>
        <time>2023-01-22T15:30:38Z</time>
      </trkpt>
      <trkpt lat="48.56227" lon="6.32214">
        <ele>327.5</ele>
        <time>2023-01-22T15:30:45Z</time>
      </trkpt>
      <trkpt lat="48.56218" lon="6.32209">
        <ele>327.7</ele>
        <time>2023-01-22T15:30:52Z</time>
      </trkpt>
      <trkpt lat="48.5621" lon="6.32203">
        <ele>327.8</ele>
        <time>2023-01-22T15:31:00Z</time>
      </trkpt>
      <trkpt lat="48.56201" lon="6.32196">
        <ele>327.9</ele>
        <time>2023-01-22T15:31:07Z</time>
      </trkpt>
      <trkpt lat="48.56192" lon="6.32189">
        <ele>327.8</ele>
        <time>2023-01-22T15:31:15Z</time>
      </trkpt>
      <trkpt lat="48.56184" lon="6.32181">
        <ele>327.8</ele>
        <time>2023-01-22T15:31:23Z</time>
      </trkpt>
      <trkpt lat="48.56175" lon="6.32174">
        <ele>327.6</ele>
        <time>2023-01-22T15:31:31Z</time>
      </trkpt>
      <trkpt lat="48.56167" lon="6.32165">
        <ele>327.4</ele>
        <time>2023-01-22T15:31:40Z</time>
      </trkpt>
      <trkpt lat="48.56159" lon="6.32158">
        <ele>327.4</ele>
        <time>2023-01-22T15:31:49Z</time>
      </trkpt>
      <trkpt lat="48.56151" lon="6.32151">
        <ele>327.4</ele>
        <time>2023-01-22T15:31:58Z</time>
      </trkpt>
      <trkpt lat="48.56144" lon="6.32139">
        <ele>327.5</ele>
        <time>2023-01-22T15:32:11Z</time>
      </trkpt>
      <trkpt lat="48.56135" lon="6.32128">
        <ele>327.5</ele>
        <time>2023-01-22T15:32:16Z</time>
      </trkpt>
      <trkpt lat="48.56128" lon="6.32118">
        <ele>327.4</ele>
        <time>2023-01-22T15:32:21Z</time>
      </trkpt>
      <trkpt lat="48.56121" lon="6.32108">
        <ele>327.3</ele>
        <time>2023-01-22T15:32:28Z</time>
      </trkpt>
      <trkpt lat="48.56114" lon="6.32098">
        <ele>327</ele>
        <time>2023-01-22T15:32:36Z</time>
      </trkpt>
      <trkpt lat="48.56106" lon="6.32087">
        <ele>326.9</ele>
        <time>2023-01-22T15:32:44Z</time>
      </trkpt>
      <trkpt lat="48.56099" lon="6.32077">
        <ele>326.9</ele>
        <time>2023-01-22T15:32:51Z</time>
      </trkpt>
      <trkpt lat="48.56092" lon="6.32067">
        <ele>327.2</ele>
        <time>2023-01-22T15:32:58Z</time>
      </trkpt>
      <trkpt lat="48.56084" lon="6.32062">
        <ele>327.8</ele>
        <time>2023-01-22T15:33:06Z</time>
      </trkpt>
      <trkpt lat="48.56076" lon="6.32054">
        <ele>328.5</ele>
        <time>2023-01-22T15:33:13Z</time>
      </trkpt>
      <trkpt lat="48.56068" lon="6.32046">
        <ele>329.1</ele>
        <time>2023-01-22T15:33:22Z</time>
      </trkpt>
      <trkpt lat="48.56067" lon="6.32045">
        <ele>329.2</ele>
        <time>2023-01-22T15:33:26Z</time>
      </trkpt>
      <trkpt lat="48.56067" lon="6.32045">
        <ele>329.2</ele>
        <time>2023-01-22T15:33:27Z</time>
      </trkpt>
      <trkpt lat="48.56067" lon="6.32045">
        <ele>329.2</ele>
        <time>2023-01-22T15:33:28Z</time>
      </trkpt>
      <trkpt lat="48.56067" lon="6.32045">
        <ele>329.2</ele>
        <time>2023-01-22T15:33:59Z</time>
      </trkpt>
      <trkpt lat="48.56067" lon="6.32045">
        <ele>329.2</ele>
        <time>2023-01-22T15:34:00Z</time>
      </trkpt>
      <trkpt lat="48.56066" lon="6.32045">
        <ele>329.3</ele>
        <time>2023-01-22T15:34:35Z</time>
      </trkpt>
      <trkpt lat="48.56066" lon="6.32045">
        <ele>329.3</ele>
        <time>2023-01-22T15:34:36Z</time>
      </trkpt>
      <trkpt lat="48.56066" lon="6.32045">
        <ele>329.3</ele>
        <time>2023-01-22T15:34:48Z</time>
      </trkpt>
      <trkpt lat="48.56058" lon="6.32037">
        <ele>329.8</ele>
        <time>2023-01-22T15:34:57Z</time>
      </trkpt>
      <trkpt lat="48.5605" lon="6.32029">
        <ele>330.3</ele>
        <time>2023-01-22T15:35:06Z</time>
      </trkpt>
      <trkpt lat="48.56042" lon="6.32021">
        <ele>330.9</ele>
        <time>2023-01-22T15:35:14Z</time>
      </trkpt>
      <trkpt lat="48.56035" lon="6.32013">
        <ele>331.5</ele>
        <time>2023-01-22T15:35:23Z</time>
      </trkpt>
      <trkpt lat="48.56026" lon="6.32005">
        <ele>332.1</ele>
        <time>2023-01-22T15:35:32Z</time>
      </trkpt>
      <trkpt lat="48.56019" lon="6.31995">
        <ele>332.6</ele>
        <time>2023-01-22T15:35:40Z</time>
      </trkpt>
      <trkpt lat="48.56012" lon="6.31987">
        <ele>333</ele>
        <time>2023-01-22T15:35:48Z</time>
      </trkpt>
      <trkpt lat="48.56004" lon="6.3198">
        <ele>333.3</ele>
        <time>2023-01-22T15:35:58Z</time>
      </trkpt>
      <trkpt lat="48.55996" lon="6.3197">
        <ele>333.7</ele>
        <time>2023-01-22T15:36:06Z</time>
      </trkpt>
      <trkpt lat="48.55988" lon="6.31963">
        <ele>333.9</ele>
        <time>2023-01-22T15:36:13Z</time>
      </trkpt>
      <trkpt lat="48.55982" lon="6.31956">
        <ele>334.1</ele>
        <time>2023-01-22T15:36:21Z</time>
      </trkpt>
      <trkpt lat="48.55982" lon="6.31957">
        <ele>334.1</ele>
        <time>2023-01-22T15:36:27Z</time>
      </trkpt>
      <trkpt lat="48.55981" lon="6.31958">
        <ele>334.1</ele>
        <time>2023-01-22T15:36:32Z</time>
      </trkpt>
      <trkpt lat="48.55981" lon="6.31957">
        <ele>334.1</ele>
        <time>2023-01-22T15:36:38Z</time>
      </trkpt>
      <trkpt lat="48.55971" lon="6.31951">
        <ele>334.3</ele>
        <time>2023-01-22T15:36:47Z</time>
      </trkpt>
      <trkpt lat="48.55963" lon="6.31944">
        <ele>334.2</ele>
        <time>2023-01-22T15:36:56Z</time>
      </trkpt>
      <trkpt lat="48.55954" lon="6.31938">
        <ele>334.1</ele>
        <time>2023-01-22T15:37:05Z</time>
      </trkpt>
      <trkpt lat="48.55944" lon="6.31936">
        <ele>334</ele>
        <time>2023-01-22T15:37:13Z</time>
      </trkpt>
      <trkpt lat="48.55935" lon="6.31931">
        <ele>333.9</ele>
        <time>2023-01-22T15:37:20Z</time>
      </trkpt>
      <trkpt lat="48.55927" lon="6.31926">
        <ele>333.9</ele>
        <time>2023-01-22T15:37:28Z</time>
      </trkpt>
      <trkpt lat="48.55917" lon="6.31922">
        <ele>333.9</ele>
        <time>2023-01-22T15:37:37Z</time>
      </trkpt>
      <trkpt lat="48.55909" lon="6.31915">
        <ele>334</ele>
        <time>2023-01-22T15:37:45Z</time>
      </trkpt>
      <trkpt lat="48.55902" lon="6.31907">
        <ele>334.2</ele>
        <time>2023-01-22T15:37:53Z</time>
      </trkpt>
      <trkpt lat="48.55894" lon="6.31898">
        <ele>334.5</ele>
        <time>2023-01-22T15:38:01Z</time>
      </trkpt>
      <trkpt lat="48.55888" lon="6.31889">
        <ele>334.6</ele>
        <time>2023-01-22T15:38:09Z</time>
      </trkpt>
      <trkpt lat="48.5588" lon="6.31879">
        <ele>334.8</ele>
        <time>2023-01-22T15:38:18Z</time>
      </trkpt>
      <trkpt lat="48.55873" lon="6.31869">
        <ele>334.9</ele>
        <time>2023-01-22T15:38:26Z</time>
      </trkpt>
      <trkpt lat="48.55866" lon="6.31858">
        <ele>334.9</ele>
        <time>2023-01-22T15:38:34Z</time>
      </trkpt>
      <trkpt lat="48.55859" lon="6.31847">
        <ele>334.9</ele>
        <time>2023-01-22T15:38:42Z</time>
      </trkpt>
      <trkpt lat="48.55852" lon="6.31837">
        <ele>335</ele>
        <time>2023-01-22T15:38:50Z</time>
      </trkpt>
      <trkpt lat="48.55845" lon="6.31827">
        <ele>335</ele>
        <time>2023-01-22T15:38:58Z</time>
      </trkpt>
      <trkpt lat="48.55838" lon="6.31818">
        <ele>335.1</ele>
        <time>2023-01-22T15:39:06Z</time>
      </trkpt>
      <trkpt lat="48.55831" lon="6.31808">
        <ele>335.2</ele>
        <time>2023-01-22T15:39:14Z</time>
      </trkpt>
      <trkpt lat="48.55825" lon="6.31797">
        <ele>335.2</ele>
        <time>2023-01-22T15:39:22Z</time>
      </trkpt>
      <trkpt lat="48.55818" lon="6.31787">
        <ele>335.3</ele>
        <time>2023-01-22T15:39:30Z</time>
      </trkpt>
      <trkpt lat="48.55811" lon="6.31777">
        <ele>335.5</ele>
        <time>2023-01-22T15:39:38Z</time>
      </trkpt>
      <trkpt lat="48.55803" lon="6.31769">
        <ele>335.6</ele>
        <time>2023-01-22T15:39:46Z</time>
      </trkpt>
      <trkpt lat="48.55795" lon="6.31763">
        <ele>335.7</ele>
        <time>2023-01-22T15:39:55Z</time>
      </trkpt>
      <trkpt lat="48.55787" lon="6.31757">
        <ele>335.7</ele>
        <time>2023-01-22T15:40:03Z</time>
      </trkpt>
      <trkpt lat="48.55778" lon="6.31752">
        <ele>335.7</ele>
        <time>2023-01-22T15:40:11Z</time>
      </trkpt>
      <trkpt lat="48.55774" lon="6.31751">
        <ele>335.7</ele>
        <time>2023-01-22T15:40:18Z</time>
      </trkpt>
      <trkpt lat="48.55774" lon="6.3175">
        <ele>335.7</ele>
        <time>2023-01-22T15:40:19Z</time>
      </trkpt>
      <trkpt lat="48.55765" lon="6.3175">
        <ele>335.5</ele>
        <time>2023-01-22T15:40:28Z</time>
      </trkpt>
      <trkpt lat="48.55756" lon="6.31756">
        <ele>335.2</ele>
        <time>2023-01-22T15:40:36Z</time>
      </trkpt>
      <trkpt lat="48.55748" lon="6.31762">
        <ele>334.7</ele>
        <time>2023-01-22T15:40:45Z</time>
      </trkpt>
      <trkpt lat="48.55739" lon="6.31767">
        <ele>334.1</ele>
        <time>2023-01-22T15:40:54Z</time>
      </trkpt>
      <trkpt lat="48.5573" lon="6.31773">
        <ele>333.3</ele>
        <time>2023-01-22T15:41:02Z</time>
      </trkpt>
      <trkpt lat="48.55721" lon="6.31778">
        <ele>332.2</ele>
        <time>2023-01-22T15:41:11Z</time>
      </trkpt>
      <trkpt lat="48.55711" lon="6.3178">
        <ele>331.1</ele>
        <time>2023-01-22T15:41:20Z</time>
      </trkpt>
      <trkpt lat="48.55701" lon="6.31784">
        <ele>330.5</ele>
        <time>2023-01-22T15:41:28Z</time>
      </trkpt>
      <trkpt lat="48.55692" lon="6.31789">
        <ele>330.2</ele>
        <time>2023-01-22T15:41:35Z</time>
      </trkpt>
      <trkpt lat="48.55683" lon="6.31795">
        <ele>329.9</ele>
        <time>2023-01-22T15:41:43Z</time>
      </trkpt>
      <trkpt lat="48.55676" lon="6.31801">
        <ele>329.5</ele>
        <time>2023-01-22T15:41:55Z</time>
      </trkpt>
      <trkpt lat="48.55676" lon="6.31801">
        <ele>329.4</ele>
        <time>2023-01-22T15:42:11Z</time>
      </trkpt>
      <trkpt lat="48.55666" lon="6.31805">
        <ele>328.7</ele>
        <time>2023-01-22T15:42:22Z</time>
      </trkpt>
      <trkpt lat="48.55657" lon="6.31806">
        <ele>328</ele>
        <time>2023-01-22T15:42:31Z</time>
      </trkpt>
      <trkpt lat="48.55647" lon="6.31804">
        <ele>327.4</ele>
        <time>2023-01-22T15:42:40Z</time>
      </trkpt>
      <trkpt lat="48.55638" lon="6.31801">
        <ele>327</ele>
        <time>2023-01-22T15:42:48Z</time>
      </trkpt>
      <trkpt lat="48.55629" lon="6.31796">
        <ele>326.8</ele>
        <time>2023-01-22T15:42:58Z</time>
      </trkpt>
      <trkpt lat="48.5562" lon="6.31793">
        <ele>326.6</ele>
        <time>2023-01-22T15:43:07Z</time>
      </trkpt>
      <trkpt lat="48.5561" lon="6.31794">
        <ele>326.5</ele>
        <time>2023-01-22T15:43:16Z</time>
      </trkpt>
      <trkpt lat="48.55608" lon="6.31796">
        <ele>326.5</ele>
        <time>2023-01-22T15:43:21Z</time>
      </trkpt>
      <trkpt lat="48.55607" lon="6.31796">
        <ele>326.5</ele>
        <time>2023-01-22T15:43:36Z</time>
      </trkpt>
      <trkpt lat="48.55598" lon="6.31798">
        <ele>326.6</ele>
        <time>2023-01-22T15:43:45Z</time>
      </trkpt>
      <trkpt lat="48.55589" lon="6.31798">
        <ele>326.8</ele>
        <time>2023-01-22T15:43:53Z</time>
      </trkpt>
      <trkpt lat="48.5558" lon="6.31799">
        <ele>327.1</ele>
        <time>2023-01-22T15:44:01Z</time>
      </trkpt>
      <trkpt lat="48.5557" lon="6.31798">
        <ele>327.5</ele>
        <time>2023-01-22T15:44:09Z</time>
      </trkpt>
      <trkpt lat="48.55561" lon="6.31798">
        <ele>328</ele>
        <time>2023-01-22T15:44:17Z</time>
      </trkpt>
      <trkpt lat="48.55551" lon="6.31799">
        <ele>328.5</ele>
        <time>2023-01-22T15:44:25Z</time>
      </trkpt>
      <trkpt lat="48.55542" lon="6.31797">
        <ele>329.3</ele>
        <time>2023-01-22T15:44:33Z</time>
      </trkpt>
      <trkpt lat="48.55532" lon="6.31798">
        <ele>330.3</ele>
        <time>2023-01-22T15:44:41Z</time>
      </trkpt>
      <trkpt lat="48.55523" lon="6.31793">
        <ele>331.2</ele>
        <time>2023-01-22T15:44:50Z</time>
      </trkpt>
      <trkpt lat="48.5552" lon="6.31784">
        <ele>331.9</ele>
        <time>2023-01-22T15:45:09Z</time>
      </trkpt>
      <trkpt lat="48.5552" lon="6.31784">
        <ele>331.9</ele>
        <time>2023-01-22T15:45:10Z</time>
      </trkpt>
      <trkpt lat="48.5552" lon="6.31784">
        <ele>331.9</ele>
        <time>2023-01-22T15:45:13Z</time>
      </trkpt>
      <trkpt lat="48.5552" lon="6.31784">
        <ele>331.9</ele>
        <time>2023-01-22T15:45:14Z</time>
      </trkpt>
      <trkpt lat="48.5552" lon="6.31784">
        <ele>331.9</ele>
        <time>2023-01-22T15:45:15Z</time>
      </trkpt>
      <trkpt lat="48.5552" lon="6.31784">
        <ele>332</ele>
        <time>2023-01-22T15:45:38Z</time>
      </trkpt>
      <trkpt lat="48.5552" lon="6.31784">
        <ele>332</ele>
        <time>2023-01-22T15:45:39Z</time>
      </trkpt>
      <trkpt lat="48.5552" lon="6.31784">
        <ele>332</ele>
        <time>2023-01-22T15:45:46Z</time>
      </trkpt>
      <trkpt lat="48.5552" lon="6.31785">
        <ele>332</ele>
        <time>2023-01-22T15:45:48Z</time>
      </trkpt>
      <trkpt lat="48.5552" lon="6.31785">
        <ele>332.1</ele>
        <time>2023-01-22T15:46:08Z</time>
      </trkpt>
      <trkpt lat="48.55514" lon="6.31796">
        <ele>333.1</ele>
        <time>2023-01-22T15:46:19Z</time>
      </trkpt>
      <trkpt lat="48.55506" lon="6.31803">
        <ele>332.7</ele>
        <time>2023-01-22T15:46:28Z</time>
      </trkpt>
      <trkpt lat="48.55505" lon="6.31819">
        <ele>332.4</ele>
        <time>2023-01-22T15:46:36Z</time>
      </trkpt>
      <trkpt lat="48.55502" lon="6.31833">
        <ele>332.1</ele>
        <time>2023-01-22T15:46:46Z</time>
      </trkpt>
      <trkpt lat="48.55501" lon="6.31847">
        <ele>331.8</ele>
        <time>2023-01-22T15:46:54Z</time>
      </trkpt>
      <trkpt lat="48.555" lon="6.31861">
        <ele>331.6</ele>
        <time>2023-01-22T15:47:02Z</time>
      </trkpt>
      <trkpt lat="48.55501" lon="6.31876">
        <ele>331.3</ele>
        <time>2023-01-22T15:47:10Z</time>
      </trkpt>
      <trkpt lat="48.55501" lon="6.31889">
        <ele>331</ele>
        <time>2023-01-22T15:47:18Z</time>
      </trkpt>
      <trkpt lat="48.55503" lon="6.31904">
        <ele>330.7</ele>
        <time>2023-01-22T15:47:26Z</time>
      </trkpt>
      <trkpt lat="48.55505" lon="6.31919">
        <ele>330.3</ele>
        <time>2023-01-22T15:47:34Z</time>
      </trkpt>
      <trkpt lat="48.55507" lon="6.31935">
        <ele>330</ele>
        <time>2023-01-22T15:47:42Z</time>
      </trkpt>
      <trkpt lat="48.5551" lon="6.31949">
        <ele>329.6</ele>
        <time>2023-01-22T15:47:51Z</time>
      </trkpt>
      <trkpt lat="48.55512" lon="6.31963">
        <ele>329.2</ele>
        <time>2023-01-22T15:47:59Z</time>
      </trkpt>
      <trkpt lat="48.55516" lon="6.31977">
        <ele>328.7</ele>
        <time>2023-01-22T15:48:06Z</time>
      </trkpt>
      <trkpt lat="48.55517" lon="6.3199">
        <ele>328.2</ele>
        <time>2023-01-22T15:48:13Z</time>
      </trkpt>
      <trkpt lat="48.55519" lon="6.32005">
        <ele>327.5</ele>
        <time>2023-01-22T15:48:20Z</time>
      </trkpt>
      <trkpt lat="48.55522" lon="6.32019">
        <ele>326.6</ele>
        <time>2023-01-22T15:48:29Z</time>
      </trkpt>
      <trkpt lat="48.55527" lon="6.32032">
        <ele>325.6</ele>
        <time>2023-01-22T15:48:39Z</time>
      </trkpt>
      <trkpt lat="48.55531" lon="6.32045">
        <ele>324.5</ele>
        <time>2023-01-22T15:48:47Z</time>
      </trkpt>
      <trkpt lat="48.55534" lon="6.32059">
        <ele>323.4</ele>
        <time>2023-01-22T15:48:56Z</time>
      </trkpt>
      <trkpt lat="48.55539" lon="6.32072">
        <ele>322.2</ele>
        <time>2023-01-22T15:49:05Z</time>
      </trkpt>
      <trkpt lat="48.55543" lon="6.32085">
        <ele>321</ele>
        <time>2023-01-22T15:49:14Z</time>
      </trkpt>
      <trkpt lat="48.55544" lon="6.32099">
        <ele>319.8</ele>
        <time>2023-01-22T15:49:22Z</time>
      </trkpt>
      <trkpt lat="48.55544" lon="6.32113">
        <ele>318.7</ele>
        <time>2023-01-22T15:49:30Z</time>
      </trkpt>
      <trkpt lat="48.55541" lon="6.32127">
        <ele>317.4</ele>
        <time>2023-01-22T15:49:38Z</time>
      </trkpt>
      <trkpt lat="48.55533" lon="6.32135">
        <ele>316.3</ele>
        <time>2023-01-22T15:49:47Z</time>
      </trkpt>
      <trkpt lat="48.55525" lon="6.32141">
        <ele>315.2</ele>
        <time>2023-01-22T15:49:56Z</time>
      </trkpt>
      <trkpt lat="48.55519" lon="6.32154">
        <ele>313.9</ele>
        <time>2023-01-22T15:50:06Z</time>
      </trkpt>
      <trkpt lat="48.55517" lon="6.32162">
        <ele>313</ele>
        <time>2023-01-22T15:50:13Z</time>
      </trkpt>
      <trkpt lat="48.55517" lon="6.32162">
        <ele>313</ele>
        <time>2023-01-22T15:50:14Z</time>
      </trkpt>
      <trkpt lat="48.55512" lon="6.32161">
        <ele>312.3</ele>
        <time>2023-01-22T15:50:23Z</time>
      </trkpt>
      <trkpt lat="48.55513" lon="6.32162">
        <ele>312.2</ele>
        <time>2023-01-22T15:50:24Z</time>
      </trkpt>
      <trkpt lat="48.55506" lon="6.32172">
        <ele>310.4</ele>
        <time>2023-01-22T15:50:37Z</time>
      </trkpt>
      <trkpt lat="48.55499" lon="6.32182">
        <ele>309.6</ele>
        <time>2023-01-22T15:50:49Z</time>
      </trkpt>
      <trkpt lat="48.55495" lon="6.32187">
        <ele>309</ele>
        <time>2023-01-22T15:51:02Z</time>
      </trkpt>
      <trkpt lat="48.55495" lon="6.32188">
        <ele>308.9</ele>
        <time>2023-01-22T15:51:03Z</time>
      </trkpt>
      <trkpt lat="48.55488" lon="6.32198">
        <ele>307.8</ele>
        <time>2023-01-22T15:51:12Z</time>
      </trkpt>
      <trkpt lat="48.55481" lon="6.3221">
        <ele>306.6</ele>
        <time>2023-01-22T15:51:20Z</time>
      </trkpt>
      <trkpt lat="48.55478" lon="6.32223">
        <ele>305.5</ele>
        <time>2023-01-22T15:51:28Z</time>
      </trkpt>
      <trkpt lat="48.55471" lon="6.32232">
        <ele>304.4</ele>
        <time>2023-01-22T15:51:37Z</time>
      </trkpt>
      <trkpt lat="48.55466" lon="6.32244">
        <ele>303.4</ele>
        <time>2023-01-22T15:51:46Z</time>
      </trkpt>
      <trkpt lat="48.5546" lon="6.32255">
        <ele>302.4</ele>
        <time>2023-01-22T15:51:52Z</time>
      </trkpt>
      <trkpt lat="48.55454" lon="6.32267">
        <ele>301.6</ele>
        <time>2023-01-22T15:52:04Z</time>
      </trkpt>
      <trkpt lat="48.55447" lon="6.32276">
        <ele>301.2</ele>
        <time>2023-01-22T15:52:13Z</time>
      </trkpt>
      <trkpt lat="48.55438" lon="6.32281">
        <ele>300.9</ele>
        <time>2023-01-22T15:52:22Z</time>
      </trkpt>
      <trkpt lat="48.55431" lon="6.3229">
        <ele>300.8</ele>
        <time>2023-01-22T15:52:30Z</time>
      </trkpt>
      <trkpt lat="48.55429" lon="6.32296">
        <ele>300.7</ele>
        <time>2023-01-22T15:52:37Z</time>
      </trkpt>
      <trkpt lat="48.55428" lon="6.32296">
        <ele>300.7</ele>
        <time>2023-01-22T15:52:38Z</time>
      </trkpt>
      <trkpt lat="48.55422" lon="6.32307">
        <ele>300.7</ele>
        <time>2023-01-22T15:52:49Z</time>
      </trkpt>
      <trkpt lat="48.55414" lon="6.32317">
        <ele>300.6</ele>
        <time>2023-01-22T15:52:57Z</time>
      </trkpt>
      <trkpt lat="48.55408" lon="6.32328">
        <ele>300.6</ele>
        <time>2023-01-22T15:53:04Z</time>
      </trkpt>
      <trkpt lat="48.55404" lon="6.32341">
        <ele>300.6</ele>
        <time>2023-01-22T15:53:23Z</time>
      </trkpt>
      <trkpt lat="48.55399" lon="6.32352">
        <ele>300.6</ele>
        <time>2023-01-22T15:53:36Z</time>
      </trkpt>
      <trkpt lat="48.55397" lon="6.32366">
        <ele>300.7</ele>
        <time>2023-01-22T15:53:50Z</time>
      </trkpt>
      <trkpt lat="48.55394" lon="6.32379">
        <ele>300.7</ele>
        <time>2023-01-22T15:53:56Z</time>
      </trkpt>
      <trkpt lat="48.55392" lon="6.32394">
        <ele>300.6</ele>
        <time>2023-01-22T15:54:05Z</time>
      </trkpt>
      <trkpt lat="48.55393" lon="6.32409">
        <ele>300.5</ele>
        <time>2023-01-22T15:54:12Z</time>
      </trkpt>
      <trkpt lat="48.55391" lon="6.32424">
        <ele>299.4</ele>
        <time>2023-01-22T15:54:20Z</time>
      </trkpt>
      <trkpt lat="48.55391" lon="6.32438">
        <ele>298.1</ele>
        <time>2023-01-22T15:54:31Z</time>
      </trkpt>
      <trkpt lat="48.5539" lon="6.32452">
        <ele>297</ele>
        <time>2023-01-22T15:54:38Z</time>
      </trkpt>
      <trkpt lat="48.5539" lon="6.32452">
        <ele>296.1</ele>
        <time>2023-01-22T15:54:40Z</time>
      </trkpt>
      <trkpt lat="48.5539" lon="6.32453">
        <ele>295.2</ele>
        <time>2023-01-22T15:54:41Z</time>
      </trkpt>
      <trkpt lat="48.55388" lon="6.32467">
        <ele>294.7</ele>
        <time>2023-01-22T15:54:54Z</time>
      </trkpt>
      <trkpt lat="48.55389" lon="6.32482">
        <ele>293.4</ele>
        <time>2023-01-22T15:55:03Z</time>
      </trkpt>
      <trkpt lat="48.55388" lon="6.32496">
        <ele>291.8</ele>
        <time>2023-01-22T15:55:09Z</time>
      </trkpt>
      <trkpt lat="48.55386" lon="6.32511">
        <ele>290.9</ele>
        <time>2023-01-22T15:55:18Z</time>
      </trkpt>
      <trkpt lat="48.55384" lon="6.32525">
        <ele>289.1</ele>
        <time>2023-01-22T15:55:25Z</time>
      </trkpt>
      <trkpt lat="48.55382" lon="6.32539">
        <ele>288.2</ele>
        <time>2023-01-22T15:55:33Z</time>
      </trkpt>
      <trkpt lat="48.55379" lon="6.32551">
        <ele>287.3</ele>
        <time>2023-01-22T15:55:40Z</time>
      </trkpt>
      <trkpt lat="48.55376" lon="6.32566">
        <ele>286.4</ele>
        <time>2023-01-22T15:55:46Z</time>
      </trkpt>
      <trkpt lat="48.55371" lon="6.3258">
        <ele>286.2</ele>
        <time>2023-01-22T15:55:53Z</time>
      </trkpt>
      <trkpt lat="48.55373" lon="6.32594">
        <ele>283.9</ele>
        <time>2023-01-22T15:56:01Z</time>
      </trkpt>
      <trkpt lat="48.5537" lon="6.32608">
        <ele>283.1</ele>
        <time>2023-01-22T15:56:07Z</time>
      </trkpt>
      <trkpt lat="48.5537" lon="6.32623">
        <ele>281.7</ele>
        <time>2023-01-22T15:56:16Z</time>
      </trkpt>
      <trkpt lat="48.55372" lon="6.32636">
        <ele>279.7</ele>
        <time>2023-01-22T15:56:23Z</time>
      </trkpt>
      <trkpt lat="48.55379" lon="6.32644">
        <ele>277.3</ele>
        <time>2023-01-22T15:56:32Z</time>
      </trkpt>
      <trkpt lat="48.55389" lon="6.32645">
        <ele>276.9</ele>
        <time>2023-01-22T15:56:41Z</time>
      </trkpt>
      <trkpt lat="48.55395" lon="6.32634">
        <ele>276.4</ele>
        <time>2023-01-22T15:56:51Z</time>
      </trkpt>
      <trkpt lat="48.554" lon="6.32621">
        <ele>275.9</ele>
        <time>2023-01-22T15:56:59Z</time>
      </trkpt>
      <trkpt lat="48.55408" lon="6.32613">
        <ele>275.3</ele>
        <time>2023-01-22T15:57:11Z</time>
      </trkpt>
      <trkpt lat="48.55415" lon="6.32604">
        <ele>274.8</ele>
        <time>2023-01-22T15:57:17Z</time>
      </trkpt>
      <trkpt lat="48.55424" lon="6.32599">
        <ele>274.3</ele>
        <time>2023-01-22T15:57:23Z</time>
      </trkpt>
      <trkpt lat="48.55432" lon="6.32592">
        <ele>273.8</ele>
        <time>2023-01-22T15:57:30Z</time>
      </trkpt>
      <trkpt lat="48.5544" lon="6.32584">
        <ele>273.5</ele>
        <time>2023-01-22T15:57:39Z</time>
      </trkpt>
      <trkpt lat="48.55449" lon="6.32576">
        <ele>273.4</ele>
        <time>2023-01-22T15:57:45Z</time>
      </trkpt>
      <trkpt lat="48.55457" lon="6.32568">
        <ele>273.3</ele>
        <time>2023-01-22T15:57:51Z</time>
      </trkpt>
      <trkpt lat="48.55465" lon="6.32559">
        <ele>273.3</ele>
        <time>2023-01-22T15:57:58Z</time>
      </trkpt>
      <trkpt lat="48.5547" lon="6.32547">
        <ele>273.3</ele>
        <time>2023-01-22T15:58:07Z</time>
      </trkpt>
      <trkpt lat="48.55478" lon="6.32538">
        <ele>273.3</ele>
        <time>2023-01-22T15:58:16Z</time>
      </trkpt>
      <trkpt lat="48.55485" lon="6.32529">
        <ele>273.2</ele>
        <time>2023-01-22T15:58:24Z</time>
      </trkpt>
      <trkpt lat="48.55495" lon="6.32528">
        <ele>273.1</ele>
        <time>2023-01-22T15:58:31Z</time>
      </trkpt>
      <trkpt lat="48.55502" lon="6.32537">
        <ele>272.7</ele>
        <time>2023-01-22T15:58:39Z</time>
      </trkpt>
      <trkpt lat="48.55509" lon="6.32548">
        <ele>272.1</ele>
        <time>2023-01-22T15:58:48Z</time>
      </trkpt>
      <trkpt lat="48.55517" lon="6.32557">
        <ele>271.5</ele>
        <time>2023-01-22T15:58:56Z</time>
      </trkpt>
      <trkpt lat="48.55525" lon="6.32562">
        <ele>270.9</ele>
        <time>2023-01-22T15:59:05Z</time>
      </trkpt>
      <trkpt lat="48.55532" lon="6.32553">
        <ele>270.7</ele>
        <time>2023-01-22T15:59:18Z</time>
      </trkpt>
      <trkpt lat="48.55539" lon="6.32542">
        <ele>270.7</ele>
        <time>2023-01-22T15:59:30Z</time>
      </trkpt>
      <trkpt lat="48.55548" lon="6.32538">
        <ele>270.8</ele>
        <time>2023-01-22T15:59:36Z</time>
      </trkpt>
      <trkpt lat="48.55557" lon="6.32532">
        <ele>271.1</ele>
        <time>2023-01-22T15:59:42Z</time>
      </trkpt>
      <trkpt lat="48.55566" lon="6.32528">
        <ele>271.5</ele>
        <time>2023-01-22T15:59:50Z</time>
      </trkpt>
      <trkpt lat="48.55573" lon="6.32519">
        <ele>272</ele>
        <time>2023-01-22T15:59:56Z</time>
      </trkpt>
      <trkpt lat="48.55581" lon="6.32511">
        <ele>272.5</ele>
        <time>2023-01-22T16:00:03Z</time>
      </trkpt>
      <trkpt lat="48.55589" lon="6.32503">
        <ele>273.2</ele>
        <time>2023-01-22T16:00:11Z</time>
      </trkpt>
      <trkpt lat="48.55597" lon="6.32496">
        <ele>273.9</ele>
        <time>2023-01-22T16:00:19Z</time>
      </trkpt>
      <trkpt lat="48.55604" lon="6.32488">
        <ele>274.8</ele>
        <time>2023-01-22T16:00:27Z</time>
      </trkpt>
      <trkpt lat="48.55612" lon="6.32479">
        <ele>275.8</ele>
        <time>2023-01-22T16:00:36Z</time>
      </trkpt>
      <trkpt lat="48.5562" lon="6.3247">
        <ele>276.7</ele>
        <time>2023-01-22T16:00:45Z</time>
      </trkpt>
      <trkpt lat="48.55628" lon="6.32463">
        <ele>277.6</ele>
        <time>2023-01-22T16:00:53Z</time>
      </trkpt>
      <trkpt lat="48.55636" lon="6.32455">
        <ele>278.5</ele>
        <time>2023-01-22T16:01:01Z</time>
      </trkpt>
      <trkpt lat="48.55646" lon="6.32455">
        <ele>277.9</ele>
        <time>2023-01-22T16:01:08Z</time>
      </trkpt>
      <trkpt lat="48.55653" lon="6.32465">
        <ele>276.9</ele>
        <time>2023-01-22T16:01:16Z</time>
      </trkpt>
      <trkpt lat="48.55659" lon="6.32475">
        <ele>276</ele>
        <time>2023-01-22T16:01:23Z</time>
      </trkpt>
      <trkpt lat="48.55666" lon="6.32486">
        <ele>275</ele>
        <time>2023-01-22T16:01:31Z</time>
      </trkpt>
      <trkpt lat="48.55672" lon="6.32497">
        <ele>274.1</ele>
        <time>2023-01-22T16:01:39Z</time>
      </trkpt>
      <trkpt lat="48.55679" lon="6.32508">
        <ele>273.2</ele>
        <time>2023-01-22T16:01:47Z</time>
      </trkpt>
      <trkpt lat="48.55685" lon="6.32518">
        <ele>272.4</ele>
        <time>2023-01-22T16:01:55Z</time>
      </trkpt>
      <trkpt lat="48.55692" lon="6.32528">
        <ele>271.7</ele>
        <time>2023-01-22T16:02:03Z</time>
      </trkpt>
      <trkpt lat="48.55698" lon="6.32539">
        <ele>271</ele>
        <time>2023-01-22T16:02:11Z</time>
      </trkpt>
      <trkpt lat="48.55705" lon="6.32548">
        <ele>270.4</ele>
        <time>2023-01-22T16:02:19Z</time>
      </trkpt>
      <trkpt lat="48.55713" lon="6.32557">
        <ele>269.6</ele>
        <time>2023-01-22T16:02:28Z</time>
      </trkpt>
      <trkpt lat="48.55721" lon="6.32564">
        <ele>268.9</ele>
        <time>2023-01-22T16:02:37Z</time>
      </trkpt>
      <trkpt lat="48.55728" lon="6.32574">
        <ele>268.1</ele>
        <time>2023-01-22T16:02:45Z</time>
      </trkpt>
      <trkpt lat="48.55737" lon="6.32582">
        <ele>267.3</ele>
        <time>2023-01-22T16:02:54Z</time>
      </trkpt>
      <trkpt lat="48.55745" lon="6.32591">
        <ele>266.5</ele>
        <time>2023-01-22T16:03:03Z</time>
      </trkpt>
      <trkpt lat="48.55752" lon="6.32599">
        <ele>265.7</ele>
        <time>2023-01-22T16:03:19Z</time>
      </trkpt>
      <trkpt lat="48.5576" lon="6.32608">
        <ele>264.8</ele>
        <time>2023-01-22T16:03:30Z</time>
      </trkpt>
      <trkpt lat="48.55768" lon="6.32615">
        <ele>263.9</ele>
        <time>2023-01-22T16:03:37Z</time>
      </trkpt>
      <trkpt lat="48.55776" lon="6.32622">
        <ele>262.9</ele>
        <time>2023-01-22T16:03:44Z</time>
      </trkpt>
      <trkpt lat="48.55777" lon="6.32625">
        <ele>262.7</ele>
        <time>2023-01-22T16:03:49Z</time>
      </trkpt>
      <trkpt lat="48.55777" lon="6.32626">
        <ele>262.6</ele>
        <time>2023-01-22T16:03:53Z</time>
      </trkpt>
      <trkpt lat="48.55777" lon="6.3263">
        <ele>262.4</ele>
        <time>2023-01-22T16:04:01Z</time>
      </trkpt>
      <trkpt lat="48.55777" lon="6.3263">
        <ele>262.3</ele>
        <time>2023-01-22T16:04:02Z</time>
      </trkpt>
      <trkpt lat="48.55777" lon="6.3263">
        <ele>262.3</ele>
        <time>2023-01-22T16:04:04Z</time>
      </trkpt>
      <trkpt lat="48.55777" lon="6.3263">
        <ele>262.3</ele>
        <time>2023-01-22T16:04:07Z</time>
      </trkpt>
      <trkpt lat="48.55787" lon="6.32634">
        <ele>261.2</ele>
        <time>2023-01-22T16:04:28Z</time>
      </trkpt>
      <trkpt lat="48.55791" lon="6.32638">
        <ele>260.8</ele>
        <time>2023-01-22T16:04:36Z</time>
      </trkpt>
      <trkpt lat="48.55791" lon="6.32638">
        <ele>260.7</ele>
        <time>2023-01-22T16:04:37Z</time>
      </trkpt>
      <trkpt lat="48.55791" lon="6.32638">
        <ele>260.7</ele>
        <time>2023-01-22T16:04:38Z</time>
      </trkpt>
      <trkpt lat="48.55791" lon="6.32638">
        <ele>260.7</ele>
        <time>2023-01-22T16:04:46Z</time>
      </trkpt>
      <trkpt lat="48.55791" lon="6.32638">
        <ele>260.7</ele>
        <time>2023-01-22T16:04:47Z</time>
      </trkpt>
      <trkpt lat="48.55791" lon="6.32638">
        <ele>260.7</ele>
        <time>2023-01-22T16:04:50Z</time>
      </trkpt>
      <trkpt lat="48.55791" lon="6.32638">
        <ele>260.7</ele>
        <time>2023-01-22T16:04:53Z</time>
      </trkpt>
      <trkpt lat="48.55792" lon="6.32638">
        <ele>260.7</ele>
        <time>2023-01-22T16:04:54Z</time>
      </trkpt>
      <trkpt lat="48.55801" lon="6.32643">
        <ele>259.6</ele>
        <time>2023-01-22T16:05:10Z</time>
      </trkpt>
      <trkpt lat="48.55809" lon="6.32648">
        <ele>258.7</ele>
        <time>2023-01-22T16:05:18Z</time>
      </trkpt>
      <trkpt lat="48.55818" lon="6.32654">
        <ele>257.8</ele>
        <time>2023-01-22T16:05:26Z</time>
      </trkpt>
      <trkpt lat="48.55826" lon="6.3266">
        <ele>256.9</ele>
        <time>2023-01-22T16:05:33Z</time>
      </trkpt>
      <trkpt lat="48.55834" lon="6.32668">
        <ele>256.1</ele>
        <time>2023-01-22T16:05:41Z</time>
      </trkpt>
      <trkpt lat="48.55842" lon="6.32675">
        <ele>255.4</ele>
        <time>2023-01-22T16:05:49Z</time>
      </trkpt>
      <trkpt lat="48.5585" lon="6.32684">
        <ele>254.7</ele>
        <time>2023-01-22T16:05:58Z</time>
      </trkpt>
      <trkpt lat="48.55859" lon="6.32692">
        <ele>254.1</ele>
        <time>2023-01-22T16:06:07Z</time>
      </trkpt>
      <trkpt lat="48.55867" lon="6.327">
        <ele>253.5</ele>
        <time>2023-01-22T16:06:16Z</time>
      </trkpt>
      <trkpt lat="48.55875" lon="6.32708">
        <ele>253.1</ele>
        <time>2023-01-22T16:06:24Z</time>
      </trkpt>
      <trkpt lat="48.55882" lon="6.32717">
        <ele>252.7</ele>
        <time>2023-01-22T16:06:32Z</time>
      </trkpt>
      <trkpt lat="48.5589" lon="6.32726">
        <ele>252.2</ele>
        <time>2023-01-22T16:06:41Z</time>
      </trkpt>
      <trkpt lat="48.55896" lon="6.32736">
        <ele>251.9</ele>
        <time>2023-01-22T16:06:49Z</time>
      </trkpt>
      <trkpt lat="48.55904" lon="6.32746">
        <ele>251.5</ele>
        <time>2023-01-22T16:06:58Z</time>
      </trkpt>
      <trkpt lat="48.55911" lon="6.32755">
        <ele>251.3</ele>
        <time>2023-01-22T16:07:07Z</time>
      </trkpt>
      <trkpt lat="48.55918" lon="6.32765">
        <ele>251</ele>
        <time>2023-01-22T16:07:16Z</time>
      </trkpt>
      <trkpt lat="48.55924" lon="6.32775">
        <ele>250.7</ele>
        <time>2023-01-22T16:07:24Z</time>
      </trkpt>
      <trkpt lat="48.55931" lon="6.32786">
        <ele>250.5</ele>
        <time>2023-01-22T16:07:33Z</time>
      </trkpt>
      <trkpt lat="48.55937" lon="6.32798">
        <ele>250.2</ele>
        <time>2023-01-22T16:07:41Z</time>
      </trkpt>
      <trkpt lat="48.55943" lon="6.32809">
        <ele>249.9</ele>
        <time>2023-01-22T16:07:49Z</time>
      </trkpt>
      <trkpt lat="48.5595" lon="6.3282">
        <ele>249.6</ele>
        <time>2023-01-22T16:07:58Z</time>
      </trkpt>
      <trkpt lat="48.55956" lon="6.32831">
        <ele>249.3</ele>
        <time>2023-01-22T16:08:07Z</time>
      </trkpt>
      <trkpt lat="48.55962" lon="6.32843">
        <ele>248.9</ele>
        <time>2023-01-22T16:08:16Z</time>
      </trkpt>
      <trkpt lat="48.55969" lon="6.32854">
        <ele>248.6</ele>
        <time>2023-01-22T16:08:24Z</time>
      </trkpt>
      <trkpt lat="48.55974" lon="6.32864">
        <ele>248.2</ele>
        <time>2023-01-22T16:08:32Z</time>
      </trkpt>
      <trkpt lat="48.55981" lon="6.32875">
        <ele>247.8</ele>
        <time>2023-01-22T16:08:40Z</time>
      </trkpt>
      <trkpt lat="48.55987" lon="6.32886">
        <ele>247.4</ele>
        <time>2023-01-22T16:08:49Z</time>
      </trkpt>
      <trkpt lat="48.55993" lon="6.32896">
        <ele>247</ele>
        <time>2023-01-22T16:08:57Z</time>
      </trkpt>
      <trkpt lat="48.56" lon="6.32907">
        <ele>246.6</ele>
        <time>2023-01-22T16:09:05Z</time>
      </trkpt>
      <trkpt lat="48.56006" lon="6.32917">
        <ele>246.2</ele>
        <time>2023-01-22T16:09:13Z</time>
      </trkpt>
      <trkpt lat="48.56013" lon="6.32926">
        <ele>245.8</ele>
        <time>2023-01-22T16:09:21Z</time>
      </trkpt>
      <trkpt lat="48.56019" lon="6.32937">
        <ele>245.3</ele>
        <time>2023-01-22T16:09:29Z</time>
      </trkpt>
      <trkpt lat="48.56026" lon="6.32947">
        <ele>244.8</ele>
        <time>2023-01-22T16:09:37Z</time>
      </trkpt>
      <trkpt lat="48.56033" lon="6.32958">
        <ele>244.2</ele>
        <time>2023-01-22T16:09:45Z</time>
      </trkpt>
      <trkpt lat="48.5604" lon="6.32968">
        <ele>243.7</ele>
        <time>2023-01-22T16:09:53Z</time>
      </trkpt>
      <trkpt lat="48.56046" lon="6.32978">
        <ele>243.2</ele>
        <time>2023-01-22T16:10:00Z</time>
      </trkpt>
      <trkpt lat="48.56052" lon="6.32987">
        <ele>242.7</ele>
        <time>2023-01-22T16:10:08Z</time>
      </trkpt>
      <trkpt lat="48.5606" lon="6.32997">
        <ele>242.1</ele>
        <time>2023-01-22T16:10:17Z</time>
      </trkpt>
      <trkpt lat="48.56068" lon="6.33006">
        <ele>241.5</ele>
        <time>2023-01-22T16:10:26Z</time>
      </trkpt>
      <trkpt lat="48.56075" lon="6.33016">
        <ele>240.9</ele>
        <time>2023-01-22T16:10:35Z</time>
      </trkpt>
      <trkpt lat="48.56084" lon="6.33024">
        <ele>240.4</ele>
        <time>2023-01-22T16:10:43Z</time>
      </trkpt>
      <trkpt lat="48.5609" lon="6.33033">
        <ele>239.9</ele>
        <time>2023-01-22T16:10:50Z</time>
      </trkpt>
      <trkpt lat="48.56097" lon="6.33044">
        <ele>239.4</ele>
        <time>2023-01-22T16:10:58Z</time>
      </trkpt>
      <trkpt lat="48.56104" lon="6.33052">
        <ele>238.9</ele>
        <time>2023-01-22T16:11:06Z</time>
      </trkpt>
      <trkpt lat="48.56112" lon="6.3306">
        <ele>238.4</ele>
        <time>2023-01-22T16:11:14Z</time>
      </trkpt>
      <trkpt lat="48.56119" lon="6.33069">
        <ele>237.7</ele>
        <time>2023-01-22T16:11:26Z</time>
      </trkpt>
      <trkpt lat="48.56124" lon="6.3308">
        <ele>237.1</ele>
        <time>2023-01-22T16:11:34Z</time>
      </trkpt>
      <trkpt lat="48.56129" lon="6.33091">
        <ele>236.6</ele>
        <time>2023-01-22T16:11:42Z</time>
      </trkpt>
      <trkpt lat="48.56135" lon="6.33103">
        <ele>236</ele>
        <time>2023-01-22T16:11:49Z</time>
      </trkpt>
      <trkpt lat="48.56141" lon="6.33113">
        <ele>235.5</ele>
        <time>2023-01-22T16:11:57Z</time>
      </trkpt>
      <trkpt lat="48.56146" lon="6.33126">
        <ele>235</ele>
        <time>2023-01-22T16:12:05Z</time>
      </trkpt>
      <trkpt lat="48.56152" lon="6.33137">
        <ele>234.4</ele>
        <time>2023-01-22T16:12:13Z</time>
      </trkpt>
      <trkpt lat="48.56159" lon="6.33147">
        <ele>233.9</ele>
        <time>2023-01-22T16:12:22Z</time>
      </trkpt>
      <trkpt lat="48.56167" lon="6.33155">
        <ele>233.3</ele>
        <time>2023-01-22T16:12:31Z</time>
      </trkpt>
      <trkpt lat="48.56174" lon="6.33145">
        <ele>233.8</ele>
        <time>2023-01-22T16:12:41Z</time>
      </trkpt>
      <trkpt lat="48.56176" lon="6.33131">
        <ele>234</ele>
        <time>2023-01-22T16:12:48Z</time>
      </trkpt>
      <trkpt lat="48.56177" lon="6.33116">
        <ele>234.4</ele>
        <time>2023-01-22T16:12:57Z</time>
      </trkpt>
      <trkpt lat="48.56175" lon="6.33102">
        <ele>234.9</ele>
        <time>2023-01-22T16:13:05Z</time>
      </trkpt>
      <trkpt lat="48.56171" lon="6.33089">
        <ele>235.4</ele>
        <time>2023-01-22T16:13:14Z</time>
      </trkpt>
      <trkpt lat="48.56171" lon="6.33074">
        <ele>236</ele>
        <time>2023-01-22T16:13:20Z</time>
      </trkpt>
      <trkpt lat="48.5617" lon="6.33059">
        <ele>236.6</ele>
        <time>2023-01-22T16:13:27Z</time>
      </trkpt>
      <trkpt lat="48.56168" lon="6.33045">
        <ele>237.2</ele>
        <time>2023-01-22T16:13:34Z</time>
      </trkpt>
      <trkpt lat="48.56166" lon="6.33031">
        <ele>238</ele>
        <time>2023-01-22T16:13:43Z</time>
      </trkpt>
      <trkpt lat="48.56171" lon="6.33019">
        <ele>239.2</ele>
        <time>2023-01-22T16:13:51Z</time>
      </trkpt>
      <trkpt lat="48.5618" lon="6.33014">
        <ele>240</ele>
        <time>2023-01-22T16:13:59Z</time>
      </trkpt>
      <trkpt lat="48.56191" lon="6.33015">
        <ele>240.7</ele>
        <time>2023-01-22T16:14:05Z</time>
      </trkpt>
      <trkpt lat="48.56193" lon="6.33015">
        <ele>240.9</ele>
        <time>2023-01-22T16:14:12Z</time>
      </trkpt>
      <trkpt lat="48.56195" lon="6.33015">
        <ele>241</ele>
        <time>2023-01-22T16:14:19Z</time>
      </trkpt>
      <trkpt lat="48.56197" lon="6.33015">
        <ele>241.1</ele>
        <time>2023-01-22T16:14:29Z</time>
      </trkpt>
      <trkpt lat="48.562" lon="6.33015">
        <ele>241.3</ele>
        <time>2023-01-22T16:14:40Z</time>
      </trkpt>
      <trkpt lat="48.56202" lon="6.33016">
        <ele>241.4</ele>
        <time>2023-01-22T16:14:46Z</time>
      </trkpt>
      <trkpt lat="48.56204" lon="6.33016">
        <ele>241.6</ele>
        <time>2023-01-22T16:14:53Z</time>
      </trkpt>
      <trkpt lat="48.56206" lon="6.33016">
        <ele>241.7</ele>
        <time>2023-01-22T16:15:01Z</time>
      </trkpt>
      <trkpt lat="48.56208" lon="6.33016">
        <ele>241.9</ele>
        <time>2023-01-22T16:15:06Z</time>
      </trkpt>
      <trkpt lat="48.5621" lon="6.33016">
        <ele>242</ele>
        <time>2023-01-22T16:15:19Z</time>
      </trkpt>
      <trkpt lat="48.56213" lon="6.33016">
        <ele>242.1</ele>
        <time>2023-01-22T16:15:20Z</time>
      </trkpt>
      <trkpt lat="48.56215" lon="6.33016">
        <ele>242.3</ele>
        <time>2023-01-22T16:15:21Z</time>
      </trkpt>
      <trkpt lat="48.56217" lon="6.33016">
        <ele>242.4</ele>
        <time>2023-01-22T16:15:23Z</time>
      </trkpt>
      <trkpt lat="48.56219" lon="6.33016">
        <ele>242.5</ele>
        <time>2023-01-22T16:15:25Z</time>
      </trkpt>
      <trkpt lat="48.56221" lon="6.33016">
        <ele>242.6</ele>
        <time>2023-01-22T16:15:26Z</time>
      </trkpt>
      <trkpt lat="48.56223" lon="6.33016">
        <ele>242.6</ele>
        <time>2023-01-22T16:15:27Z</time>
      </trkpt>
      <trkpt lat="48.56225" lon="6.33016">
        <ele>242.7</ele>
        <time>2023-01-22T16:15:28Z</time>
      </trkpt>
      <trkpt lat="48.56228" lon="6.33016">
        <ele>242.8</ele>
        <time>2023-01-22T16:15:29Z</time>
      </trkpt>
      <trkpt lat="48.5623" lon="6.33016">
        <ele>242.8</ele>
        <time>2023-01-22T16:15:31Z</time>
      </trkpt>
      <trkpt lat="48.56232" lon="6.33017">
        <ele>242.9</ele>
        <time>2023-01-22T16:15:33Z</time>
      </trkpt>
      <trkpt lat="48.56234" lon="6.33017">
        <ele>242.9</ele>
        <time>2023-01-22T16:15:34Z</time>
      </trkpt>
      <trkpt lat="48.56236" lon="6.33017">
        <ele>242.9</ele>
        <time>2023-01-22T16:15:36Z</time>
      </trkpt>
      <trkpt lat="48.56238" lon="6.33017">
        <ele>242.9</ele>
        <time>2023-01-22T16:15:38Z</time>
      </trkpt>
      <trkpt lat="48.56241" lon="6.33017">
        <ele>243</ele>
        <time>2023-01-22T16:15:39Z</time>
      </trkpt>
      <trkpt lat="48.56243" lon="6.33017">
        <ele>243</ele>
        <time>2023-01-22T16:15:40Z</time>
      </trkpt>
      <trkpt lat="48.56245" lon="6.33017">
        <ele>243</ele>
        <time>2023-01-22T16:15:50Z</time>
      </trkpt>
      <trkpt lat="48.56247" lon="6.33017">
        <ele>243.1</ele>
        <time>2023-01-22T16:15:51Z</time>
      </trkpt>
      <trkpt lat="48.56249" lon="6.33017">
        <ele>243.2</ele>
        <time>2023-01-22T16:15:55Z</time>
      </trkpt>
      <trkpt lat="48.56251" lon="6.33017">
        <ele>243.3</ele>
        <time>2023-01-22T16:15:55Z</time>
      </trkpt>
    </trkseg>
  </trk>
</gpx>